sensor_id;sensor_type;location;lat;lon;timestamp;P1;durP1;ratioP1;P2;durP2;ratioP2
73557;SDS011;61829;53.286;10.434;2023-12-29T00:02:21;2.03;;;1.08;;
73557;SDS011;61829;53.286;10.434;2023-12-29T00:04:48;3.83;;;1.40;;
73557;SDS011;61829;53.286;10.434;2023-12-29T00:07:15;8.32;;;1.48;;
73557;SDS011;61829;53.286;10.434;2023-12-29T00:09:41;4.82;;;1.33;;
73557;SDS011;61829;53.286;10.434;2023-12-29T00:12:07;7.15;;;1.50;;
73557;SDS011;61829;53.286;10.434;2023-12-29T00:18:24;4.03;;;1.48;;
73557;SDS011;61829;53.286;10.434;2023-12-29T00:20:51;5.90;;;1.60;;
73557;SDS011;61829;53.286;10.434;2023-12-29T00:23:17;6.57;;;1.85;;
73557;SDS011;61829;53.286;10.434;2023-12-29T00:25:43;5.80;;;1.73;;
73557;SDS011;61829;53.286;10.434;2023-12-29T00:28:09;6.28;;;1.42;;
73557;SDS011;61829;53.286;10.434;2023-12-29T00:30:37;9.25;;;1.98;;
73557;SDS011;61829;53.286;10.434;2023-12-29T00:33:20;6.30;;;1.35;;
73557;SDS011;61829;53.286;10.434;2023-12-29T00:35:46;6.05;;;1.30;;
73557;SDS011;61829;53.286;10.434;2023-12-29T00:38:12;4.07;;;1.25;;
73557;SDS011;61829;53.286;10.434;2023-12-29T00:40:38;7.20;;;1.60;;
73557;SDS011;61829;53.286;10.434;2023-12-29T00:43:04;8.88;;;1.35;;
73557;SDS011;61829;53.286;10.434;2023-12-29T00:45:31;7.35;;;1.67;;
73557;SDS011;61829;53.286;10.434;2023-12-29T00:48:02;8.57;;;1.50;;
73557;SDS011;61829;53.286;10.434;2023-12-29T00:50:28;6.03;;;1.40;;
73557;SDS011;61829;53.286;10.434;2023-12-29T00:52:55;3.58;;;1.23;;
73557;SDS011;61829;53.286;10.434;2023-12-29T00:55:20;7.93;;;1.60;;
73557;SDS011;61829;53.286;10.434;2023-12-29T00:57:47;4.80;;;1.50;;
73557;SDS011;61829;53.286;10.434;2023-12-29T01:03:38;4.38;;;1.30;;
73557;SDS011;61829;53.286;10.434;2023-12-29T01:06:04;6.97;;;1.80;;
73557;SDS011;61829;53.286;10.434;2023-12-29T01:08:30;4.45;;;1.52;;
73557;SDS011;61829;53.286;10.434;2023-12-29T01:10:56;6.10;;;1.60;;
73557;SDS011;61829;53.286;10.434;2023-12-29T01:13:23;5.25;;;1.40;;
73557;SDS011;61829;53.286;10.434;2023-12-29T01:15:49;3.85;;;1.50;;
73557;SDS011;61829;53.286;10.434;2023-12-29T01:18:15;2.80;;;1.33;;
73557;SDS011;61829;53.286;10.434;2023-12-29T01:20:41;5.03;;;1.40;;
73557;SDS011;61829;53.286;10.434;2023-12-29T01:23:07;6.53;;;1.77;;
73557;SDS011;61829;53.286;10.434;2023-12-29T01:25:33;6.75;;;1.55;;
73557;SDS011;61829;53.286;10.434;2023-12-29T01:27:59;2.78;;;1.23;;
73557;SDS011;61829;53.286;10.434;2023-12-29T01:30:25;7.68;;;1.73;;
73557;SDS011;61829;53.286;10.434;2023-12-29T01:32:52;5.55;;;1.40;;
73557;SDS011;61829;53.286;10.434;2023-12-29T01:35:17;3.85;;;1.10;;
73557;SDS011;61829;53.286;10.434;2023-12-29T01:37:43;5.40;;;1.33;;
73557;SDS011;61829;53.286;10.434;2023-12-29T01:40:09;8.80;;;1.85;;
73557;SDS011;61829;53.286;10.434;2023-12-29T01:42:36;5.28;;;1.65;;
73557;SDS011;61829;53.286;10.434;2023-12-29T01:45:02;4.60;;;1.38;;
73557;SDS011;61829;53.286;10.434;2023-12-29T01:47:29;6.57;;;1.42;;
73557;SDS011;61829;53.286;10.434;2023-12-29T01:49:55;4.82;;;1.50;;
73557;SDS011;61829;53.286;10.434;2023-12-29T01:56:22;4.45;;;1.50;;
73557;SDS011;61829;53.286;10.434;2023-12-29T01:58:49;4.57;;;1.52;;
73557;SDS011;61829;53.286;10.434;2023-12-29T02:01:16;2.90;;;1.40;;
73557;SDS011;61829;53.286;10.434;2023-12-29T02:03:44;4.30;;;1.42;;
73557;SDS011;61829;53.286;10.434;2023-12-29T02:06:11;2.13;;;1.00;;
73557;SDS011;61829;53.286;10.434;2023-12-29T02:08:42;3.03;;;1.27;;
73557;SDS011;61829;53.286;10.434;2023-12-29T02:11:08;2.47;;;1.20;;
73557;SDS011;61829;53.286;10.434;2023-12-29T02:13:35;3.13;;;1.17;;
73557;SDS011;61829;53.286;10.434;2023-12-29T02:16:04;5.47;;;1.60;;
73557;SDS011;61829;53.286;10.434;2023-12-29T02:18:34;4.10;;;1.25;;
73557;SDS011;61829;53.286;10.434;2023-12-29T02:21:02;4.50;;;1.20;;
73557;SDS011;61829;53.286;10.434;2023-12-29T02:23:28;5.63;;;1.40;;
73557;SDS011;61829;53.286;10.434;2023-12-29T02:25:58;3.40;;;1.10;;
73557;SDS011;61829;53.286;10.434;2023-12-29T02:28:32;5.10;;;1.42;;
73557;SDS011;61829;53.286;10.434;2023-12-29T02:33:30;7.38;;;1.35;;
73557;SDS011;61829;53.286;10.434;2023-12-29T02:36:02;3.08;;;1.27;;
73557;SDS011;61829;53.286;10.434;2023-12-29T02:38:29;3.63;;;1.30;;
73557;SDS011;61829;53.286;10.434;2023-12-29T02:40:56;3.00;;;1.40;;
73557;SDS011;61829;53.286;10.434;2023-12-29T02:43:23;5.13;;;1.33;;
73557;SDS011;61829;53.286;10.434;2023-12-29T02:45:48;5.40;;;1.35;;
73557;SDS011;61829;53.286;10.434;2023-12-29T02:51:03;3.42;;;1.25;;
73557;SDS011;61829;53.286;10.434;2023-12-29T02:53:29;6.78;;;1.23;;
73557;SDS011;61829;53.286;10.434;2023-12-29T02:55:55;3.50;;;1.30;;
73557;SDS011;61829;53.286;10.434;2023-12-29T02:58:21;4.50;;;1.30;;
73557;SDS011;61829;53.286;10.434;2023-12-29T03:00:47;4.72;;;2.08;;
73557;SDS011;61829;53.286;10.434;2023-12-29T03:03:14;3.38;;;1.42;;
73557;SDS011;61829;53.286;10.434;2023-12-29T03:05:40;4.72;;;1.27;;
73557;SDS011;61829;53.286;10.434;2023-12-29T03:08:06;2.20;;;1.25;;
73557;SDS011;61829;53.286;10.434;2023-12-29T03:10:44;2.35;;;1.10;;
73557;SDS011;61829;53.286;10.434;2023-12-29T03:13:10;5.95;;;1.52;;
73557;SDS011;61829;53.286;10.434;2023-12-29T03:15:36;4.60;;;1.50;;
73557;SDS011;61829;53.286;10.434;2023-12-29T03:18:02;4.80;;;1.80;;
73557;SDS011;61829;53.286;10.434;2023-12-29T03:23:22;3.28;;;1.35;;
73557;SDS011;61829;53.286;10.434;2023-12-29T03:25:48;6.97;;;1.45;;
73557;SDS011;61829;53.286;10.434;2023-12-29T03:28:14;5.18;;;1.50;;
73557;SDS011;61829;53.286;10.434;2023-12-29T03:30:40;6.00;;;1.40;;
73557;SDS011;61829;53.286;10.434;2023-12-29T03:33:06;2.75;;;1.30;;
73557;SDS011;61829;53.286;10.434;2023-12-29T03:35:32;5.95;;;1.70;;
73557;SDS011;61829;53.286;10.434;2023-12-29T03:37:58;4.93;;;1.42;;
73557;SDS011;61829;53.286;10.434;2023-12-29T03:40:24;5.60;;;1.92;;
73557;SDS011;61829;53.286;10.434;2023-12-29T03:42:50;4.65;;;1.77;;
73557;SDS011;61829;53.286;10.434;2023-12-29T03:52:38;7.13;;;1.75;;
73557;SDS011;61829;53.286;10.434;2023-12-29T03:55:04;2.85;;;1.45;;
73557;SDS011;61829;53.286;10.434;2023-12-29T03:57:31;7.40;;;1.65;;
73557;SDS011;61829;53.286;10.434;2023-12-29T03:59:58;4.00;;;1.48;;
73557;SDS011;61829;53.286;10.434;2023-12-29T04:02:24;10.52;;;2.20;;
73557;SDS011;61829;53.286;10.434;2023-12-29T04:04:50;5.72;;;1.70;;
73557;SDS011;61829;53.286;10.434;2023-12-29T04:07:16;7.63;;;1.70;;
73557;SDS011;61829;53.286;10.434;2023-12-29T04:09:42;6.00;;;2.95;;
73557;SDS011;61829;53.286;10.434;2023-12-29T04:12:08;3.50;;;1.70;;
73557;SDS011;61829;53.286;10.434;2023-12-29T04:14:34;10.57;;;2.17;;
73557;SDS011;61829;53.286;10.434;2023-12-29T04:17:00;8.25;;;1.95;;
73557;SDS011;61829;53.286;10.434;2023-12-29T04:19:29;7.28;;;1.83;;
73557;SDS011;61829;53.286;10.434;2023-12-29T04:29:51;4.20;;;1.70;;
73557;SDS011;61829;53.286;10.434;2023-12-29T04:32:17;8.25;;;1.63;;
73557;SDS011;61829;53.286;10.434;2023-12-29T04:34:43;2.50;;;1.65;;
73557;SDS011;61829;53.286;10.434;2023-12-29T04:37:09;5.35;;;1.85;;
73557;SDS011;61829;53.286;10.434;2023-12-29T04:39:35;5.85;;;2.28;;
73557;SDS011;61829;53.286;10.434;2023-12-29T04:42:01;4.82;;;2.08;;
73557;SDS011;61829;53.286;10.434;2023-12-29T04:44:30;4.55;;;1.90;;
73557;SDS011;61829;53.286;10.434;2023-12-29T04:46:56;4.85;;;1.00;;
73557;SDS011;61829;53.286;10.434;2023-12-29T04:49:22;2.47;;;1.00;;
73557;SDS011;61829;53.286;10.434;2023-12-29T04:51:48;0.85;;;0.47;;
73557;SDS011;61829;53.286;10.434;2023-12-29T04:54:26;4.00;;;0.60;;
73557;SDS011;61829;53.286;10.434;2023-12-29T04:56:52;1.95;;;0.50;;
73557;SDS011;61829;53.286;10.434;2023-12-29T04:59:18;1.30;;;0.73;;
73557;SDS011;61829;53.286;10.434;2023-12-29T05:01:44;2.13;;;0.60;;
73557;SDS011;61829;53.286;10.434;2023-12-29T05:04:10;2.17;;;0.50;;
73557;SDS011;61829;53.286;10.434;2023-12-29T05:06:36;0.57;;;0.30;;
73557;SDS011;61829;53.286;10.434;2023-12-29T05:09:02;0.47;;;0.30;;
73557;SDS011;61829;53.286;10.434;2023-12-29T05:11:29;1.17;;;0.40;;
73557;SDS011;61829;53.286;10.434;2023-12-29T05:13:55;1.35;;;0.45;;
73557;SDS011;61829;53.286;10.434;2023-12-29T05:16:21;0.90;;;0.35;;
73557;SDS011;61829;53.286;10.434;2023-12-29T05:18:47;0.65;;;0.20;;
73557;SDS011;61829;53.286;10.434;2023-12-29T05:21:14;0.90;;;0.38;;
73557;SDS011;61829;53.286;10.434;2023-12-29T05:23:41;1.67;;;0.57;;
73557;SDS011;61829;53.286;10.434;2023-12-29T05:26:07;0.57;;;0.22;;
73557;SDS011;61829;53.286;10.434;2023-12-29T05:28:33;1.05;;;0.40;;
73557;SDS011;61829;53.286;10.434;2023-12-29T05:30:59;1.55;;;0.65;;
73557;SDS011;61829;53.286;10.434;2023-12-29T05:33:30;1.83;;;0.60;;
73557;SDS011;61829;53.286;10.434;2023-12-29T05:35:56;1.77;;;0.73;;
73557;SDS011;61829;53.286;10.434;2023-12-29T05:38:22;1.98;;;0.43;;
73557;SDS011;61829;53.286;10.434;2023-12-29T05:40:49;1.02;;;0.60;;
73557;SDS011;61829;53.286;10.434;2023-12-29T05:43:16;0.90;;;0.52;;
73557;SDS011;61829;53.286;10.434;2023-12-29T05:45:42;0.75;;;0.70;;
73557;SDS011;61829;53.286;10.434;2023-12-29T05:48:08;1.42;;;0.70;;
73557;SDS011;61829;53.286;10.434;2023-12-29T05:50:34;1.77;;;0.50;;
73557;SDS011;61829;53.286;10.434;2023-12-29T05:53:00;1.45;;;0.60;;
73557;SDS011;61829;53.286;10.434;2023-12-29T05:55:26;2.55;;;0.68;;
73557;SDS011;61829;53.286;10.434;2023-12-29T05:57:52;1.20;;;0.45;;
73557;SDS011;61829;53.286;10.434;2023-12-29T06:00:19;0.85;;;0.40;;
73557;SDS011;61829;53.286;10.434;2023-12-29T06:02:44;1.30;;;0.50;;
73557;SDS011;61829;53.286;10.434;2023-12-29T06:05:11;0.63;;;0.60;;
73557;SDS011;61829;53.286;10.434;2023-12-29T06:07:37;1.00;;;0.57;;
73557;SDS011;61829;53.286;10.434;2023-12-29T06:10:04;0.70;;;0.50;;
73557;SDS011;61829;53.286;10.434;2023-12-29T06:12:30;1.15;;;0.60;;
73557;SDS011;61829;53.286;10.434;2023-12-29T06:14:56;2.67;;;0.60;;
73557;SDS011;61829;53.286;10.434;2023-12-29T06:17:22;0.82;;;0.63;;
73557;SDS011;61829;53.286;10.434;2023-12-29T06:19:49;2.30;;;0.70;;
73557;SDS011;61829;53.286;10.434;2023-12-29T06:22:15;2.15;;;0.70;;
73557;SDS011;61829;53.286;10.434;2023-12-29T06:24:41;2.50;;;0.80;;
73557;SDS011;61829;53.286;10.434;2023-12-29T06:27:08;1.05;;;0.90;;
73557;SDS011;61829;53.286;10.434;2023-12-29T06:29:45;3.63;;;0.60;;
73557;SDS011;61829;53.286;10.434;2023-12-29T06:32:11;2.10;;;0.63;;
73557;SDS011;61829;53.286;10.434;2023-12-29T06:34:38;4.20;;;0.70;;
73557;SDS011;61829;53.286;10.434;2023-12-29T06:37:03;2.15;;;0.70;;
73557;SDS011;61829;53.286;10.434;2023-12-29T06:39:30;1.70;;;1.08;;
73557;SDS011;61829;53.286;10.434;2023-12-29T06:41:55;2.30;;;0.90;;
73557;SDS011;61829;53.286;10.434;2023-12-29T06:44:22;3.45;;;1.02;;
73557;SDS011;61829;53.286;10.434;2023-12-29T06:46:48;1.92;;;1.00;;
73557;SDS011;61829;53.286;10.434;2023-12-29T06:49:14;4.05;;;1.08;;
73557;SDS011;61829;53.286;10.434;2023-12-29T06:51:40;5.30;;;1.50;;
73557;SDS011;61829;53.286;10.434;2023-12-29T06:54:07;3.50;;;1.63;;
73557;SDS011;61829;53.286;10.434;2023-12-29T06:56:32;4.10;;;1.40;;
73557;SDS011;61829;53.286;10.434;2023-12-29T06:58:59;3.95;;;1.40;;
73557;SDS011;61829;53.286;10.434;2023-12-29T07:01:25;8.20;;;2.17;;
73557;SDS011;61829;53.286;10.434;2023-12-29T07:03:51;6.97;;;1.98;;
73557;SDS011;61829;53.286;10.434;2023-12-29T07:06:17;6.32;;;1.83;;
73557;SDS011;61829;53.286;10.434;2023-12-29T07:08:43;7.03;;;1.73;;
73557;SDS011;61829;53.286;10.434;2023-12-29T07:11:09;5.35;;;1.98;;
73557;SDS011;61829;53.286;10.434;2023-12-29T07:13:37;3.58;;;1.50;;
73557;SDS011;61829;53.286;10.434;2023-12-29T07:16:03;6.85;;;1.80;;
73557;SDS011;61829;53.286;10.434;2023-12-29T07:18:30;8.65;;;1.90;;
73557;SDS011;61829;53.286;10.434;2023-12-29T07:20:56;7.93;;;2.10;;
73557;SDS011;61829;53.286;10.434;2023-12-29T07:23:22;4.88;;;1.58;;
73557;SDS011;61829;53.286;10.434;2023-12-29T07:25:48;5.63;;;1.67;;
73557;SDS011;61829;53.286;10.434;2023-12-29T07:28:15;5.95;;;1.90;;
73557;SDS011;61829;53.286;10.434;2023-12-29T07:30:40;8.43;;;1.70;;
73557;SDS011;61829;53.286;10.434;2023-12-29T07:33:07;8.73;;;2.03;;
73557;SDS011;61829;53.286;10.434;2023-12-29T07:35:33;6.68;;;1.92;;
73557;SDS011;61829;53.286;10.434;2023-12-29T07:37:59;7.05;;;1.70;;
73557;SDS011;61829;53.286;10.434;2023-12-29T07:40:25;6.93;;;1.60;;
73557;SDS011;61829;53.286;10.434;2023-12-29T07:42:51;11.63;;;1.88;;
73557;SDS011;61829;53.286;10.434;2023-12-29T07:45:18;9.18;;;1.42;;
73557;SDS011;61829;53.286;10.434;2023-12-29T07:47:44;8.77;;;1.92;;
73557;SDS011;61829;53.286;10.434;2023-12-29T07:50:10;6.32;;;1.45;;
73557;SDS011;61829;53.286;10.434;2023-12-29T07:52:36;4.18;;;1.70;;
73557;SDS011;61829;53.286;10.434;2023-12-29T07:55:02;3.35;;;1.33;;
73557;SDS011;61829;53.286;10.434;2023-12-29T08:01:09;4.30;;;1.48;;
73557;SDS011;61829;53.286;10.434;2023-12-29T08:03:35;5.63;;;1.48;;
73557;SDS011;61829;53.286;10.434;2023-12-29T08:06:01;7.07;;;1.80;;
73557;SDS011;61829;53.286;10.434;2023-12-29T08:08:27;6.18;;;1.77;;
73557;SDS011;61829;53.286;10.434;2023-12-29T08:10:54;6.10;;;1.58;;
73557;SDS011;61829;53.286;10.434;2023-12-29T08:13:19;9.23;;;1.70;;
73557;SDS011;61829;53.286;10.434;2023-12-29T08:15:46;2.65;;;1.15;;
73557;SDS011;61829;53.286;10.434;2023-12-29T08:18:12;7.85;;;1.90;;
73557;SDS011;61829;53.286;10.434;2023-12-29T08:20:38;9.63;;;1.50;;
73557;SDS011;61829;53.286;10.434;2023-12-29T08:23:04;8.80;;;1.52;;
73557;SDS011;61829;53.286;10.434;2023-12-29T08:25:30;3.58;;;1.38;;
73557;SDS011;61829;53.286;10.434;2023-12-29T08:27:56;8.07;;;1.85;;
73557;SDS011;61829;53.286;10.434;2023-12-29T08:30:22;5.90;;;1.63;;
73557;SDS011;61829;53.286;10.434;2023-12-29T08:32:48;8.25;;;1.70;;
73557;SDS011;61829;53.286;10.434;2023-12-29T08:35:15;8.25;;;1.85;;
73557;SDS011;61829;53.286;10.434;2023-12-29T08:37:40;5.35;;;1.40;;
73557;SDS011;61829;53.286;10.434;2023-12-29T08:40:07;6.13;;;1.35;;
73557;SDS011;61829;53.286;10.434;2023-12-29T08:42:33;5.43;;;2.30;;
73557;SDS011;61829;53.286;10.434;2023-12-29T08:44:59;11.23;;;2.30;;
73557;SDS011;61829;53.286;10.434;2023-12-29T08:47:25;6.68;;;1.75;;
73557;SDS011;61829;53.286;10.434;2023-12-29T08:49:52;8.55;;;1.50;;
73557;SDS011;61829;53.286;10.434;2023-12-29T08:52:20;5.68;;;1.80;;
73557;SDS011;61829;53.286;10.434;2023-12-29T08:54:46;5.40;;;1.50;;
73557;SDS011;61829;53.286;10.434;2023-12-29T08:57:13;6.65;;;1.40;;
73557;SDS011;61829;53.286;10.434;2023-12-29T08:59:40;9.65;;;1.77;;
73557;SDS011;61829;53.286;10.434;2023-12-29T09:02:06;11.77;;;1.92;;
73557;SDS011;61829;53.286;10.434;2023-12-29T09:04:32;6.68;;;1.50;;
73557;SDS011;61829;53.286;10.434;2023-12-29T09:06:58;11.32;;;1.58;;
73557;SDS011;61829;53.286;10.434;2023-12-29T09:09:26;7.88;;;1.35;;
73557;SDS011;61829;53.286;10.434;2023-12-29T09:11:52;7.88;;;1.77;;
73557;SDS011;61829;53.286;10.434;2023-12-29T09:14:18;10.90;;;2.40;;
73557;SDS011;61829;53.286;10.434;2023-12-29T09:16:44;7.97;;;1.85;;
73557;SDS011;61829;53.286;10.434;2023-12-29T09:19:12;7.47;;;1.52;;
73557;SDS011;61829;53.286;10.434;2023-12-29T09:21:38;10.63;;;1.63;;
73557;SDS011;61829;53.286;10.434;2023-12-29T09:31:38;8.45;;;2.65;;
73557;SDS011;61829;53.286;10.434;2023-12-29T09:34:56;4.03;;;1.10;;
73557;SDS011;61829;53.286;10.434;2023-12-29T09:37:33;10.05;;;1.48;;
73557;SDS011;61829;53.286;10.434;2023-12-29T09:40:09;10.07;;;1.60;;
73557;SDS011;61829;53.286;10.434;2023-12-29T09:42:36;8.43;;;1.40;;
73557;SDS011;61829;53.286;10.434;2023-12-29T09:47:33;7.97;;;1.33;;
73557;SDS011;61829;53.286;10.434;2023-12-29T09:50:05;8.55;;;1.77;;
73557;SDS011;61829;53.286;10.434;2023-12-29T09:52:33;7.43;;;1.65;;
73557;SDS011;61829;53.286;10.434;2023-12-29T09:55:01;4.50;;;1.58;;
73557;SDS011;61829;53.286;10.434;2023-12-29T09:57:28;5.72;;;1.40;;
73557;SDS011;61829;53.286;10.434;2023-12-29T09:59:55;6.03;;;1.58;;
73557;SDS011;61829;53.286;10.434;2023-12-29T10:02:23;4.85;;;1.95;;
73557;SDS011;61829;53.286;10.434;2023-12-29T10:04:49;5.00;;;1.27;;
73557;SDS011;61829;53.286;10.434;2023-12-29T10:07:25;5.05;;;1.08;;
73557;SDS011;61829;53.286;10.434;2023-12-29T10:09:52;5.82;;;1.20;;
73557;SDS011;61829;53.286;10.434;2023-12-29T10:12:20;3.60;;;0.82;;
73557;SDS011;61829;53.286;10.434;2023-12-29T10:25:42;2.42;;;0.80;;
73557;SDS011;61829;53.286;10.434;2023-12-29T10:28:11;3.28;;;0.98;;
73557;SDS011;61829;53.286;10.434;2023-12-29T10:30:38;5.20;;;1.08;;
73557;SDS011;61829;53.286;10.434;2023-12-29T10:35:31;1.02;;;0.73;;
73557;SDS011;61829;53.286;10.434;2023-12-29T10:38:10;4.47;;;1.10;;
73557;SDS011;61829;53.286;10.434;2023-12-29T10:40:36;1.83;;;0.75;;
73557;SDS011;61829;53.286;10.434;2023-12-29T10:43:02;4.25;;;0.90;;
73557;SDS011;61829;53.286;10.434;2023-12-29T10:45:32;5.53;;;0.90;;
73557;SDS011;61829;53.286;10.434;2023-12-29T10:48:02;3.33;;;0.80;;
73557;SDS011;61829;53.286;10.434;2023-12-29T10:50:28;3.42;;;0.90;;
73557;SDS011;61829;53.286;10.434;2023-12-29T10:53:10;4.20;;;0.85;;
73557;SDS011;61829;53.286;10.434;2023-12-29T10:55:38;3.42;;;0.70;;
73557;SDS011;61829;53.286;10.434;2023-12-29T10:58:04;3.40;;;0.70;;
73557;SDS011;61829;53.286;10.434;2023-12-29T11:00:31;5.05;;;1.00;;
73557;SDS011;61829;53.286;10.434;2023-12-29T11:03:00;1.92;;;0.70;;
73557;SDS011;61829;53.286;10.434;2023-12-29T11:05:27;2.03;;;0.63;;
73557;SDS011;61829;53.286;10.434;2023-12-29T11:07:54;1.35;;;0.88;;
73557;SDS011;61829;53.286;10.434;2023-12-29T11:10:20;3.40;;;0.80;;
73557;SDS011;61829;53.286;10.434;2023-12-29T11:12:48;3.15;;;0.80;;
73557;SDS011;61829;53.286;10.434;2023-12-29T11:15:15;2.72;;;0.70;;
73557;SDS011;61829;53.286;10.434;2023-12-29T11:17:42;3.78;;;1.00;;
73557;SDS011;61829;53.286;10.434;2023-12-29T11:22:52;1.55;;;0.75;;
73557;SDS011;61829;53.286;10.434;2023-12-29T11:25:19;2.88;;;1.02;;
73557;SDS011;61829;53.286;10.434;2023-12-29T11:27:46;4.68;;;1.17;;
73557;SDS011;61829;53.286;10.434;2023-12-29T11:30:14;2.38;;;1.00;;
73557;SDS011;61829;53.286;10.434;2023-12-29T11:32:45;4.28;;;1.20;;
73557;SDS011;61829;53.286;10.434;2023-12-29T11:43:35;1.40;;;0.80;;
73557;SDS011;61829;53.286;10.434;2023-12-29T11:46:01;3.50;;;1.20;;
73557;SDS011;61829;53.286;10.434;2023-12-29T11:51:30;3.35;;;1.00;;
73557;SDS011;61829;53.286;10.434;2023-12-29T11:54:00;5.68;;;1.58;;
73557;SDS011;61829;53.286;10.434;2023-12-29T11:56:31;4.35;;;1.00;;
73557;SDS011;61829;53.286;10.434;2023-12-29T11:59:17;4.78;;;1.00;;
73557;SDS011;61829;53.286;10.434;2023-12-29T12:01:46;4.72;;;1.27;;
73557;SDS011;61829;53.286;10.434;2023-12-29T12:07:09;4.10;;;1.17;;
73557;SDS011;61829;53.286;10.434;2023-12-29T12:12:38;1.83;;;0.80;;
73557;SDS011;61829;53.286;10.434;2023-12-29T12:17:52;4.25;;;1.15;;
73557;SDS011;61829;53.286;10.434;2023-12-29T12:20:19;3.70;;;0.93;;
73557;SDS011;61829;53.286;10.434;2023-12-29T12:22:45;3.05;;;0.75;;
73557;SDS011;61829;53.286;10.434;2023-12-29T12:25:15;1.50;;;0.63;;
73557;SDS011;61829;53.286;10.434;2023-12-29T12:27:41;3.30;;;1.00;;
73557;SDS011;61829;53.286;10.434;2023-12-29T12:30:08;2.72;;;0.90;;
73557;SDS011;61829;53.286;10.434;2023-12-29T12:32:35;2.65;;;0.80;;
73557;SDS011;61829;53.286;10.434;2023-12-29T12:35:01;1.15;;;0.73;;
73557;SDS011;61829;53.286;10.434;2023-12-29T12:39:55;1.35;;;0.65;;
73557;SDS011;61829;53.286;10.434;2023-12-29T12:42:22;3.22;;;0.80;;
73557;SDS011;61829;53.286;10.434;2023-12-29T12:44:56;2.58;;;1.05;;
73557;SDS011;61829;53.286;10.434;2023-12-29T12:48:12;3.53;;;1.00;;
73557;SDS011;61829;53.286;10.434;2023-12-29T12:50:27;1.63;;;0.90;;
73557;SDS011;61829;53.286;10.434;2023-12-29T12:52:53;2.50;;;0.80;;
73557;SDS011;61829;53.286;10.434;2023-12-29T12:55:21;2.17;;;0.70;;
73557;SDS011;61829;53.286;10.434;2023-12-29T12:57:47;3.80;;;0.75;;
73557;SDS011;61829;53.286;10.434;2023-12-29T13:00:13;2.20;;;0.80;;
73557;SDS011;61829;53.286;10.434;2023-12-29T13:02:39;3.00;;;1.00;;
73557;SDS011;61829;53.286;10.434;2023-12-29T13:05:06;3.65;;;1.10;;
73557;SDS011;61829;53.286;10.434;2023-12-29T13:07:34;2.22;;;0.60;;
73557;SDS011;61829;53.286;10.434;2023-12-29T13:10:01;2.80;;;0.90;;
73557;SDS011;61829;53.286;10.434;2023-12-29T13:12:27;2.70;;;0.82;;
73557;SDS011;61829;53.286;10.434;2023-12-29T13:14:54;2.50;;;0.75;;
73557;SDS011;61829;53.286;10.434;2023-12-29T13:17:30;1.92;;;0.70;;
73557;SDS011;61829;53.286;10.434;2023-12-29T13:19:57;1.48;;;0.68;;
73557;SDS011;61829;53.286;10.434;2023-12-29T13:22:23;1.27;;;0.73;;
73557;SDS011;61829;53.286;10.434;2023-12-29T13:24:52;2.78;;;0.90;;
73557;SDS011;61829;53.286;10.434;2023-12-29T13:27:18;3.03;;;0.90;;
73557;SDS011;61829;53.286;10.434;2023-12-29T13:29:45;1.13;;;0.60;;
73557;SDS011;61829;53.286;10.434;2023-12-29T13:32:16;4.15;;;0.98;;
73557;SDS011;61829;53.286;10.434;2023-12-29T13:42:48;1.58;;;0.70;;
73557;SDS011;61829;53.286;10.434;2023-12-29T13:45:17;1.83;;;0.55;;
73557;SDS011;61829;53.286;10.434;2023-12-29T13:47:45;7.75;;;1.70;;
73557;SDS011;61829;53.286;10.434;2023-12-29T13:50:12;3.78;;;0.80;;
73557;SDS011;61829;53.286;10.434;2023-12-29T13:52:38;1.63;;;0.70;;
73557;SDS011;61829;53.286;10.434;2023-12-29T13:55:05;3.22;;;0.70;;
73557;SDS011;61829;53.286;10.434;2023-12-29T13:57:34;3.28;;;0.90;;
73557;SDS011;61829;53.286;10.434;2023-12-29T14:00:20;2.70;;;0.90;;
73557;SDS011;61829;53.286;10.434;2023-12-29T14:10:49;5.28;;;0.85;;
73557;SDS011;61829;53.286;10.434;2023-12-29T14:13:15;5.28;;;1.17;;
73557;SDS011;61829;53.286;10.434;2023-12-29T14:15:43;3.53;;;1.33;;
73557;SDS011;61829;53.286;10.434;2023-12-29T14:20:39;3.50;;;1.40;;
73557;SDS011;61829;53.286;10.434;2023-12-29T14:23:07;3.53;;;0.93;;
73557;SDS011;61829;53.286;10.434;2023-12-29T14:25:37;4.00;;;0.90;;
73557;SDS011;61829;53.286;10.434;2023-12-29T14:28:03;3.10;;;1.00;;
73557;SDS011;61829;53.286;10.434;2023-12-29T14:30:39;7.90;;;1.17;;
73557;SDS011;61829;53.286;10.434;2023-12-29T14:33:06;4.85;;;1.50;;
73557;SDS011;61829;53.286;10.434;2023-12-29T14:35:33;6.72;;;1.42;;
73557;SDS011;61829;53.286;10.434;2023-12-29T14:37:59;5.30;;;1.20;;
73557;SDS011;61829;53.286;10.434;2023-12-29T14:40:26;6.05;;;1.33;;
73557;SDS011;61829;53.286;10.434;2023-12-29T14:42:52;3.35;;;1.23;;
73557;SDS011;61829;53.286;10.434;2023-12-29T14:45:19;4.40;;;1.17;;
73557;SDS011;61829;53.286;10.434;2023-12-29T14:47:44;6.13;;;1.30;;
73557;SDS011;61829;53.286;10.434;2023-12-29T14:50:11;5.25;;;1.45;;
73557;SDS011;61829;53.286;10.434;2023-12-29T14:52:37;4.38;;;1.10;;
73557;SDS011;61829;53.286;10.434;2023-12-29T14:55:04;4.57;;;1.40;;
73557;SDS011;61829;53.286;10.434;2023-12-29T14:57:30;5.93;;;1.30;;
73557;SDS011;61829;53.286;10.434;2023-12-29T14:59:56;2.90;;;1.00;;
73557;SDS011;61829;53.286;10.434;2023-12-29T15:02:22;3.35;;;0.93;;
73557;SDS011;61829;53.286;10.434;2023-12-29T15:04:49;4.80;;;1.30;;
73557;SDS011;61829;53.286;10.434;2023-12-29T15:07:15;4.20;;;1.13;;
73557;SDS011;61829;53.286;10.434;2023-12-29T15:09:43;3.03;;;1.15;;
73557;SDS011;61829;53.286;10.434;2023-12-29T15:12:09;5.05;;;1.25;;
73557;SDS011;61829;53.286;10.434;2023-12-29T15:14:35;2.58;;;1.23;;
73557;SDS011;61829;53.286;10.434;2023-12-29T15:17:01;7.18;;;1.50;;
73557;SDS011;61829;53.286;10.434;2023-12-29T15:19:27;4.80;;;2.03;;
73557;SDS011;61829;53.286;10.434;2023-12-29T15:21:53;6.60;;;1.40;;
73557;SDS011;61829;53.286;10.434;2023-12-29T15:24:19;6.07;;;1.45;;
73557;SDS011;61829;53.286;10.434;2023-12-29T15:26:46;6.40;;;1.83;;
73557;SDS011;61829;53.286;10.434;2023-12-29T15:29:12;4.85;;;1.40;;
73557;SDS011;61829;53.286;10.434;2023-12-29T15:31:41;3.35;;;1.30;;
73557;SDS011;61829;53.286;10.434;2023-12-29T15:34:08;4.22;;;1.40;;
73557;SDS011;61829;53.286;10.434;2023-12-29T15:36:34;4.85;;;1.40;;
73557;SDS011;61829;53.286;10.434;2023-12-29T15:39:01;2.85;;;1.05;;
73557;SDS011;61829;53.286;10.434;2023-12-29T15:41:27;5.97;;;1.88;;
73557;SDS011;61829;53.286;10.434;2023-12-29T15:43:53;3.63;;;1.60;;
73557;SDS011;61829;53.286;10.434;2023-12-29T15:46:19;3.75;;;1.50;;
73557;SDS011;61829;53.286;10.434;2023-12-29T15:48:48;3.28;;;1.02;;
73557;SDS011;61829;53.286;10.434;2023-12-29T15:51:14;5.25;;;1.40;;
73557;SDS011;61829;53.286;10.434;2023-12-29T15:53:40;3.08;;;1.20;;
73557;SDS011;61829;53.286;10.434;2023-12-29T15:56:06;3.28;;;1.70;;
73557;SDS011;61829;53.286;10.434;2023-12-29T15:58:33;7.00;;;2.08;;
73557;SDS011;61829;53.286;10.434;2023-12-29T16:00:59;7.15;;;2.53;;
73557;SDS011;61829;53.286;10.434;2023-12-29T16:03:26;5.50;;;2.03;;
73557;SDS011;61829;53.286;10.434;2023-12-29T16:05:52;6.65;;;2.30;;
73557;SDS011;61829;53.286;10.434;2023-12-29T16:08:18;3.80;;;1.60;;
73557;SDS011;61829;53.286;10.434;2023-12-29T16:10:44;3.45;;;1.50;;
73557;SDS011;61829;53.286;10.434;2023-12-29T16:13:10;3.40;;;1.30;;
73557;SDS011;61829;53.286;10.434;2023-12-29T16:15:36;4.05;;;1.50;;
73557;SDS011;61829;53.286;10.434;2023-12-29T16:18:02;5.00;;;1.80;;
73557;SDS011;61829;53.286;10.434;2023-12-29T16:20:28;6.35;;;1.50;;